Virtual LH

Virtual LH. There's no better way to fly
Since 2013.



AIRPORT MAP

METAR AND TAF INFORMATION

METAR FOR VTSP
ADDS - METARS form results

(1536 UTC 19 June 2019)
Data provider http://aviationweather.gov/metar/data/
 
METAR text: VTSP 191530Z 00000KT 8000 FEW020 26/24 Q1011 NOSIG
Conditions at: VTSP (PHUKET INTL AIRP, TH) observed 1530 UTC 19 June 2019
Temperature: 26.0°C (79°F)
Dewpoint: 24.0°C (75°F) [RH = 89%]
Pressure (altimeter): 29.85 inches Hg (1011.0 mb)
Winds: calm
Visibility: 5 miles ( 8 km)
Ceiling: at least 12,000 feet AGL
Clouds: few clouds at 2000 feet AGL
Weather: no significant weather observed at this time

METAR text: VTSP 191500Z VRB02KT 8000 FEW020 26/24 Q1011 NOSIG
Conditions at: VTSP (PHUKET INTL AIRP, TH) observed 1500 UTC 19 June 2019
Temperature: 26.0°C (79°F)
Dewpoint: 24.0°C (75°F) [RH = 89%]
Pressure (altimeter): 29.85 inches Hg (1011.0 mb)
Winds: variable direction winds at 2 MPH (2 knots; 1.0 m/s)
Visibility: 5 miles ( 8 km)
Ceiling: at least 12,000 feet AGL
Clouds: few clouds at 2000 feet AGL
Weather: no significant weather observed at this time

Forecast for: VTSP (PHUKET INTL AIRP, TH)
Text: TAF VTSP 191100Z 1912/2018 26006KT 9999 FEW020
Forecast period: 1200 to 1400 UTC 19 June 2019
Forecast type: FROM: standard forecast or significant change
Winds: from the W (260 degrees) at 7 MPH (6 knots; 3.1 m/s)
Visibility: 6 or more miles 10+ km)
Ceiling: at least 12,000 feet AGL
Clouds: few clouds at 2000 feet AGL
Weather: no significant weather forecast for this period
Text: BECMG 1914/1916 00000KT
Forecast period: 1400 UTC 19 June 2019 to 1800 UTC 20 June 2019
Forecast type: BECOMING: Conditions expected to become as follows by 1600 UTC 19 June 2019
Winds: calm
Visibility: 6 or more miles 10+ km)
Ceiling: at least 12,000 feet AGL
Clouds: few clouds at 2000 feet AGL
Weather: no significant weather forecast for this period
Text: TEMPO 1920/2002 24015G30KT 3000 TSRA FEW018CB SCT020 BKN100
Forecast period: 2000 UTC 19 June 2019 to 0200 UTC 20 June 2019
Forecast type: TEMPORARY: The following changes expected for less than half the time period
Winds: from the WSW (240 degrees) at 17 MPH (15 knots; 7.7 m/s)
gusting to 34 MPH (30 knots; 15.4 m/s)
Visibility: 1.86 miles (2.99 km)
Ceiling: 10000 feet AGL
Clouds: few clouds at 1800 feet AGL
scattered clouds at 2000 feet AGL
broken clouds at 10000 feet AGL
Weather: TSRA  (rain associated with thunderstorm(s))

RUNWAY INFORMATION

Runway 09 Runway length 9843 ft Runway width 148 ft
Runway elevation 19 ft Runway displaced threshold 0 ft Runway heading 85
Runway 27 Runway length 9843 ft Runway width 148 ft
Runway elevation 82 ft Runway displaced threshold 0 ft Runway heading 265

AIRPORT FREQUENCIES

Type APP Name APP Frequency 124.7 MHZ
Type ATIS Name ATIS Frequency 128 MHZ
Type GND Name GND Frequency 121.9 MHZ
Type TWR Name TWR Frequency 118.1 MHZ

AIRPORT NEAR NAVIGATION AIDS

Type NDB Name Phuket Frequency 360 KHZ
Type VOR-DME Name Phuket Frequency 116900 KHZ